createdAt,value
2023-04-18T01:04:15.106Z,0.1
2023-04-18T01:09:13.505Z,0.1
2023-04-18T01:14:14.028Z,0.1
2023-04-18T01:19:13.304Z,0.1
2023-04-18T01:24:13.914Z,0.1
2023-04-18T01:29:08.987Z,0.1
2023-04-18T01:34:09.219Z,0.1
2023-04-18T01:39:08.455Z,0.1
2023-04-18T01:44:08.583Z,0.1
2023-04-18T01:49:06.071Z,0.2
2023-04-18T01:54:05.653Z,0.1
2023-04-18T01:59:05.211Z,0.1
2023-04-18T02:00:52.457Z,0.1
2023-04-18T02:10:57.850Z,0.1
2023-04-18T02:40:23.257Z,0.1
2023-04-18T02:45:34.347Z,0.1
2023-04-18T02:50:32.342Z,0
2023-04-18T02:55:30.878Z,0.1
2023-04-18T05:04:31.197Z,25.1
2023-04-18T05:09:30.554Z,24.1
2023-04-18T05:14:31.278Z,31.9
2023-04-18T05:19:28.430Z,34.4
2023-04-18T05:24:28.131Z,44.2
2023-04-18T05:29:29.935Z,43.4
2023-04-18T05:34:27.387Z,38.5
2023-04-18T05:39:27.739Z,29
2023-04-18T05:44:37.003Z,15.9
2023-04-18T05:49:14.567Z,19.8
2023-04-18T05:54:14.495Z,20.8
2023-04-18T05:59:13.959Z,18.6
2023-04-18T06:04:14.799Z,30.5
2023-04-18T06:09:12.774Z,31.9
2023-04-18T06:14:13.573Z,33.9
2023-04-18T06:19:12.782Z,45.8
2023-04-18T06:24:12.792Z,51.1
2023-04-18T06:29:09.839Z,64.3
2023-04-18T06:34:09.829Z,70.6
2023-04-18T06:39:09.037Z,73
2023-04-18T06:49:10.307Z,109.3
2023-04-18T06:54:08.052Z,77.9
2023-04-18T06:59:08.268Z,52.5
2023-04-18T07:00:54.814Z,46
2023-04-18T07:05:31.570Z,55.4
2023-04-18T07:10:27.976Z,88
2023-04-18T07:15:27.982Z,115
2023-04-18T07:20:27.720Z,150
2023-04-18T07:25:27.737Z,171.1
2023-04-18T07:30:25.575Z,97.2
2023-04-18T07:35:25.652Z,98.2
2023-04-18T07:40:24.748Z,115
2023-04-18T07:45:24.239Z,156.3
2023-04-18T07:50:33.428Z,195
2023-04-18T07:55:32.687Z,231.2
2023-04-18T07:59:45.904Z,159.1
2023-04-18T08:04:48.045Z,131.2
2023-04-18T08:09:45.416Z,93.2
2023-04-18T08:14:45.003Z,93.2
2023-04-18T08:19:46.091Z,143
2023-04-18T08:24:51.301Z,149.6
2023-04-18T08:29:42.635Z,137.5
2023-04-18T08:34:42.945Z,151.1
2023-04-18T08:39:42.112Z,141.2
2023-04-18T08:49:39.863Z,195.5
2023-04-18T08:54:39.664Z,228.2
2023-04-18T09:04:24.942Z,216.7
2023-04-18T09:09:23.832Z,273.4
2023-04-18T09:14:23.270Z,389.8
2023-04-18T09:19:23.590Z,357.6
2023-04-18T09:24:23.391Z,732.9
2023-04-18T09:29:31.730Z,404.4
2023-04-18T09:34:31.083Z,522.8
2023-04-18T09:39:31.580Z,911.8
2023-04-18T09:44:33.422Z,639.1
2023-04-18T09:49:32.348Z,245
2023-04-18T09:54:31.290Z,152
2023-04-18T09:59:31.888Z,238.2
2023-04-18T10:04:29.138Z,181.9
2023-04-18T10:09:28.066Z,142.7
2023-04-18T10:14:29.261Z,196.6
2023-04-18T10:19:15.349Z,160.3
2023-04-18T10:24:15.113Z,239.7
2023-04-18T10:29:15.331Z,195
2023-04-18T10:34:25.621Z,191.4
2023-04-18T10:39:12.543Z,297
2023-04-18T10:44:11.957Z,377.7
2023-04-18T10:49:11.381Z,340.6
2023-04-18T10:54:11.098Z,247.3
2023-04-18T10:59:10.429Z,205.9
2023-04-18T11:04:10.309Z,146.7
2023-04-18T11:09:09.680Z,182
2023-04-18T11:14:09.569Z,166.7
2023-04-18T11:19:07.105Z,183.9
2023-04-18T11:24:06.784Z,238.4
2023-04-18T11:29:06.222Z,406.3
2023-04-18T11:34:06.054Z,455.4
2023-04-18T11:39:05.682Z,360.4
2023-04-18T11:44:05.458Z,231.5
2023-04-18T11:49:05.088Z,205.8
2023-04-18T11:54:04.648Z,166.8
2023-04-18T11:59:05.846Z,128.9
2023-04-18T12:00:52.497Z,129.9
2023-04-18T12:05:28.243Z,170.6
2023-04-18T12:10:25.592Z,151
2023-04-18T12:15:25.475Z,370.1
2023-04-18T12:20:23.792Z,861.5
2023-04-18T12:25:26.148Z,268.8
2023-04-18T12:30:23.645Z,257.8
2023-04-18T12:35:33.491Z,321.9
2023-04-18T12:40:31.245Z,266.3
2023-04-18T12:46:14.126Z,108.8
2023-04-18T12:50:32.971Z,194.1
2023-04-18T12:55:30.486Z,404.9
2023-04-18T12:59:43.413Z,227.6
2023-04-18T13:04:45.373Z,322.4
2023-04-18T13:09:42.444Z,272.4
2023-04-18T13:14:42.630Z,280.1
2023-04-18T13:19:41.936Z,231
2023-04-18T13:29:39.645Z,210.8
2023-04-18T13:34:39.553Z,141
2023-04-18T13:39:39.073Z,172.4
2023-04-18T13:44:38.893Z,190.9
2023-04-18T13:49:36.835Z,237
2023-04-18T13:54:37.085Z,236.4
2023-04-18T14:04:24.375Z,234.3
2023-04-18T14:09:33.689Z,275.4
2023-04-18T14:14:23.245Z,276.9
2023-04-18T14:19:33.056Z,82.6
2023-04-18T14:24:32.569Z,68.4
2023-04-18T14:29:32.643Z,100.2
2023-04-18T14:34:33.694Z,103.2
2023-04-18T14:39:33.541Z,128.8
2023-04-18T14:44:29.534Z,153.7
2023-04-18T14:49:29.185Z,214
2023-04-18T14:54:32.698Z,581.2
2023-04-18T14:59:28.714Z,529.5
2023-04-18T15:04:28.909Z,217.6
2023-04-18T15:09:28.528Z,209.5
2023-04-18T15:14:27.165Z,230.2
2023-04-18T15:19:15.372Z,351.6
2023-04-18T15:24:15.508Z,224
2023-04-18T15:29:15.243Z,173.5
2023-04-18T15:34:13.076Z,152.8
2023-04-18T15:39:12.934Z,248.8
2023-04-18T15:44:12.690Z,182.1
2023-04-18T15:49:11.905Z,168.1
2023-04-18T15:54:10.938Z,155.6
2023-04-18T15:59:10.713Z,129.9
2023-04-18T16:00:57.808Z,121.5
2023-04-18T16:05:31.642Z,88.6
2023-04-18T16:10:29.107Z,74.7
2023-04-18T16:15:28.823Z,67.4
2023-04-18T16:20:28.105Z,59.1
2023-04-18T16:25:27.670Z,46.4
2023-04-18T16:30:27.035Z,45.3
2023-04-18T16:35:26.585Z,57.7
2023-04-18T16:40:27.025Z,47.3
2023-04-18T16:45:26.303Z,41.6
2023-04-18T16:50:27.579Z,46.2
2023-04-18T16:55:24.273Z,47.9
2023-04-18T17:29:24.651Z,39.7
2023-04-18T17:39:31.105Z,38.7
2023-04-18T18:04:27.834Z,8.2
2023-04-18T18:09:26.804Z,5.1
2023-04-18T18:14:26.865Z,4.1
2023-04-18T18:19:15.598Z,3.7
2023-04-18T18:24:15.053Z,2.9
2023-04-18T18:29:14.479Z,2
2023-04-18T18:34:13.890Z,1.2
2023-04-18T18:39:14.702Z,0.6
2023-04-18T18:44:11.278Z,0.3
2023-04-18T18:49:11.554Z,0.2
2023-04-18T18:54:12.620Z,0.2
2023-04-18T18:59:10.521Z,0.2
2023-04-18T19:04:08.729Z,0.2
2023-04-18T19:09:07.944Z,0.2
2023-04-18T19:14:07.077Z,0.2
2023-04-18T19:19:08.187Z,0.2
2023-04-18T19:34:03.989Z,0.2
2023-04-18T19:39:03.573Z,0.2
2023-04-18T19:44:01.202Z,0.2
2023-04-18T19:49:01.255Z,0.2
2023-04-18T19:54:00.381Z,0.2
2023-04-18T19:59:01.850Z,0.2
2023-04-18T20:00:47.917Z,0.2
2023-04-18T20:05:33.469Z,0.2
2023-04-18T20:10:32.915Z,0.1
2023-04-18T20:15:30.882Z,0.2
2023-04-18T20:20:29.962Z,0.1
2023-04-18T20:25:30.080Z,0.2
2023-04-18T20:30:29.279Z,0.2
2023-04-18T20:35:29.597Z,0.2
2023-04-18T20:40:29.133Z,0.2
2023-04-18T20:45:29.876Z,0.2
2023-04-18T20:50:27.127Z,0.1
2023-04-18T20:55:27.267Z,0.2
2023-04-18T20:59:45.009Z,0.1
2023-04-18T21:04:45.528Z,0.2
2023-04-18T21:09:45.270Z,0.2
2023-04-18T21:24:41.869Z,0.2
2023-04-18T21:29:41.993Z,0.1
2023-04-18T21:34:41.430Z,0.2
2023-04-18T21:39:40.830Z,0.2
2023-04-18T21:49:38.365Z,0.2
2023-04-18T21:54:37.772Z,0.2
2023-04-18T22:04:24.118Z,0.2
2023-04-18T22:09:33.166Z,0.2
2023-04-18T22:14:33.323Z,0.2
2023-04-18T22:19:23.074Z,0.2
2023-04-18T22:24:30.755Z,0.2
2023-04-18T22:29:31.270Z,0.1
2023-04-18T22:34:32.660Z,0.2
2023-04-18T22:39:29.450Z,0.2
2023-04-18T22:44:31.092Z,0.1
2023-04-18T22:49:29.261Z,0.2
2023-04-18T22:54:27.362Z,0.2
2023-04-18T22:59:26.730Z,0.1
2023-04-18T23:04:27.877Z,0.1
2023-04-18T23:09:15.213Z,0.2
2023-04-18T23:14:14.918Z,0.2
2023-04-18T23:19:14.714Z,0.2
2023-04-18T23:24:14.388Z,0.2
2023-04-18T23:29:15.530Z,0.1
2023-04-18T23:34:12.697Z,0.2
2023-04-18T23:39:12.483Z,0.1
2023-04-18T23:44:11.768Z,0.2
2023-04-18T23:49:11.659Z,0.1
2023-04-18T23:54:09.102Z,0.2
2023-04-18T23:59:08.791Z,0.1
